x

Isle Of Shoals, Nh (iosn3) Weather Station

11:00 - Mon 22nd Sep 2014 All times are EDT. -4 hours from GMT.

  • Wind
    24mph, 26mph gusts
  • Air Temp 55°f
  • Sea Pressure 1016.8mb
  • Isle Of Shoals, Nh
  • Isle Of Shoals, Nh

More Historic Weather Station data

Upgrade to MSW Pro to gain access to the past 30 days of data for over 8000 Wavebouys and Weather Stations around the globe.

Join Pro

Comparision Forecast

View Surf forecast
   
lun. 09/22 11:00 24 26 mph 1016.8mb 55f
10:00 17 21 mph 1016mb 56f
9:00 26 32 mph 1014mb 59f
8:00 22 23 mph 1012.6mb 61f
7:00 20 21 mph 1011.3mb 63f
6:00 21 24 mph 1009.5mb 65f
5:00 23 25 mph 1008.3mb 65f
4:00 21 24 mph 1007.2mb 64f
3:00 26 33 mph 1006.4mb 65f
2:00 26 30 mph 1005.9mb 65f
1:00 25 30 mph 1005mb 67f
12:00 25 29 mph 1004.4mb 67f
11:00 26 30 mph 1003.9mb 67f
10:00 23 25 mph 1003.3mb 65f
9:00 22 25 mph 1003mb 64f
8:00 20 21 mph 1002.3mb 63f
7:00 23 24 mph 1001.7mb 64f
6:00 18 20 mph 1000.4mb 66f
5:00 20 21 mph 999.1mb 67f
4:00 16
mph
998.6mb 64f
3:00 8 9 mph 998.7mb 64f
2:00 5
mph
999.1mb 63f
1:00 2 3 mph 999.7mb 62f
12:00 6
mph
999.9mb 63f
dim. 09/21 11:00 5
mph
1000.6mb 62f
10:00 1
mph
1001.5mb 63f
9:00 8 9 mph 1002mb 63f
8:00 18 20 mph 1002.4mb 64f
7:00 16
mph
1003mb 64f
6:00 20 22 mph 1003.8mb 63f
5:00 21 23 mph 1004.9mb 63f
4:00 22
mph
1005.9mb 63f
3:00 17 18 mph 1007mb 64f
2:00 21
mph
1008.1mb 65f
1:00 24 25 mph 1009mb 65f
12:00 22 23 mph 1010.9mb 64f
11:00 20 22 mph 1012.1mb 64f
10:00 7 8 mph 1012.9mb 63f
9:00 9 10 mph 1013.5mb 62f
8:00 13 14 mph 1013.4mb 62f
7:00 8
mph
1014mb 62f
6:00 14 15 mph 1014.5mb 62f
5:00 9 10 mph 1014.9mb 61f
4:00 8 9 mph 1015.4mb 61f
3:00 9
mph
1016.3mb 60f
2:00 15
mph
1017mb 61f
1:00 15 17 mph 1017.8mb 61f
12:00 15 18 mph 1018.1mb 61f
sam. 09/20 11:00 18 20 mph 1018.7mb 62f
10:00 14 15 mph 1019.4mb 62f
9:00 21 22 mph 1019.7mb 63f
8:00 20 21 mph 1019.9mb 63f
7:00 23 24 mph 1019.6mb 63f
6:00 25 26 mph 1019.7mb 63f
5:00 25 26 mph 1020mb 63f
4:00 22 23 mph 1020.4mb 61f
3:00 23 25 mph 1021.5mb 60f
2:00 26 28 mph 1022mb 59f
1:00 23 24 mph 1023.3mb 59f
12:00 24 25 mph 1024.2mb 58f
11:00 22 24 mph 1024.9mb 58f
10:00 25 28 mph 1025.4mb 57f
9:00 22 24 mph 1026.3mb 56f
8:00 21 24 mph 1027mb 55f
7:00 20 22 mph 1027.3mb 54f
6:00 21 24 mph 1027.4mb 54f
5:00 18 20 mph 1028.1mb 54f
4:00 17 20 mph 1028mb 54f
3:00 13 14 mph 1028.3mb 52f
2:00 20 22 mph 1028.5mb 54f
1:00 20 21 mph 1028.5mb 53f
12:00 17 20 mph 1028.8mb 53f
ven. 09/19 11:00 15 16 mph 1029.5mb 52f
10:00 15 16 mph 1029.7mb 52f
9:00 14 15 mph 1029.9mb 52f
8:00 14 16 mph 1029.9mb 52f
7:00 11 13 mph 1029.3mb 52f
6:00 9 10 mph 1029.1mb 52f
5:00 9 10 mph 1029.1mb 51f
4:00 9 10 mph 1028.9mb 51f
3:00 8 9 mph 1029.3mb 50f
2:00 9 13 mph 1029.4mb 50f
1:00 10 15 mph 1029.3mb 50f
12:00 10 14 mph 1028.9mb 50f
11:00 16 17 mph 1028.6mb 49f
10:00 21 25 mph 1028.4mb 49f
9:00 22 24 mph 1027.8mb 48f
8:00 22 24 mph 1026.9mb 47f
7:00 23 26 mph 1026.1mb 46f
6:00 22 25 mph 1025.2mb 47f
5:00 22 24 mph 1024.2mb 49f